Onamia, Minnesota
Current Conditions -  °F | °C
As of 10:05 PM on Sunday 21 Dec 2014 (Local Time) from KJMR Reporting Station
Overcast Overcast  
Wind Chill: 29°   Ceiling: 200
Heat Index: 34°   Visibility: 2.5mi
Dew Point: 32°   Wind: 6mph
Humidity: 93%   Direction: 150°SSE
Pressure: 29.72"   Gusts: NA
Location:  46.07°N, 93.67°W
Report Text: KJMR 220405Z AUTO 15005KT 2 1/2SM OVC002 01/00 A2972 RMK AO2
Loading
Personal Weather Stations






























Interactive Weather Map New forecast layout! Learn more

10-Day Weather Forecast

Advertisements
Track Severe Weather on mobile